Time;durP1;ratioP1;P1;durP2;ratioP2;P2;SDS_P1;SDS_P2;PMS_P1;PMS_P2;Temp;Humidity;BMP_temperature;BMP_pressure;BME280_temperature;BME280_humidity;BME280_pressure;Samples;Min_cycle;Max_cycle;Signal;HPM_P1;HPM_P2
2022/01/06 00:00:05;;;;;;;21.20;19.75;;;4.60;83.60;;;;;;5033016;28;20308;-73
2022/01/06 00:02:32;;;;;;;22.38;20.67;;;4.70;82.50;;;;;;5033283;28;20285;-72
2022/01/06 00:04:59;;;;;;;24.33;22.08;;;4.70;81.50;;;;;;5033205;28;20262;-72
2022/01/06 00:07:27;;;;;;;20.92;19.63;;;4.60;82.80;;;;;;5033222;28;20197;-72
2022/01/06 00:09:56;;;;;;;22.05;20.65;;;4.60;82.20;;;;;;5032998;28;20224;-72
2022/01/06 00:12:29;;;;;;;21.02;19.55;;;4.60;81.70;;;;;;5033147;28;20225;-72
2022/01/06 00:15:03;;;;;;;22.10;20.65;;;4.60;81.60;;;;;;5033020;28;20280;-73
2022/01/06 00:17:42;;;;;;;22.48;20.75;;;4.70;81.30;;;;;;5033097;28;20288;-72
2022/01/06 00:23:20;;;;;;;21.17;19.60;;;4.50;85.50;;;;;;5032959;28;20216;-72
2022/01/06 00:25:49;;;;;;;22.48;20.98;;;4.50;86.00;;;;;;5032984;28;20282;-73
2022/01/06 00:28:16;;;;;;;22.25;20.50;;;4.70;84.10;;;;;;5032788;28;20197;-73
2022/01/06 00:30:43;;;;;;;20.83;19.50;;;4.60;82.80;;;;;;5032667;28;20217;-72
2022/01/06 00:33:10;;;;;;;21.35;19.90;;;4.80;82.00;;;;;;5033005;28;20280;-73
2022/01/06 00:35:38;;;;;;;21.30;19.48;;;4.60;83.50;;;;;;5032646;28;20742;-73
2022/01/06 00:38:06;;;;;;;21.75;20.27;;;4.50;83.90;;;;;;5032869;28;20275;-72
2022/01/06 00:40:33;;;;;;;20.27;18.67;;;4.60;83.80;;;;;;5032531;28;20213;-73
2022/01/06 00:43:02;;;;;;;21.70;19.63;;;4.50;89.30;;;;;;5032755;28;20231;-73
2022/01/06 00:45:29;;;;;;;21.80;19.92;;;4.50;85.00;;;;;;5032806;28;20201;-73
2022/01/06 00:47:56;;;;;;;21.55;19.90;;;4.60;84.10;;;;;;5032500;28;20204;-72
2022/01/06 00:50:23;;;;;;;21.02;19.63;;;4.60;83.40;;;;;;5031893;28;20232;-71
2022/01/06 00:52:50;;;;;;;21.65;20.10;;;4.50;83.00;;;;;;5032413;28;20604;-72
2022/01/06 00:55:17;;;;;;;20.95;19.45;;;4.60;83.30;;;;;;5032584;28;20559;-72
2022/01/06 00:57:44;;;;;;;20.95;19.42;;;4.70;82.90;;;;;;5032458;28;20205;-72
2022/01/06 01:00:14;;;;;;;21.30;19.75;;;4.80;83.30;;;;;;5032129;28;20217;-72
2022/01/06 01:02:41;;;;;;;20.98;19.58;;;4.80;83.20;;;;;;5032358;28;20197;-72
2022/01/06 01:05:08;;;;;;;21.48;20.00;;;4.80;82.80;;;;;;5032322;28;20209;-72
2022/01/06 01:07:35;;;;;;;21.05;19.65;;;4.80;82.90;;;;;;5032377;28;20658;-72
2022/01/06 01:10:02;;;;;;;21.58;19.88;;;4.80;82.90;;;;;;5032067;28;20271;-72
2022/01/06 01:12:29;;;;;;;21.48;19.70;;;4.80;83.10;;;;;;5032449;28;20236;-72
2022/01/06 01:14:59;;;;;;;23.67;21.67;;;4.80;83.10;;;;;;5032307;28;20235;-72
2022/01/06 01:17:27;;;;;;;21.38;19.73;;;4.80;83.10;;;;;;5032367;28;20200;-72
2022/01/06 01:19:54;;;;;;;20.13;18.83;;;4.70;83.10;;;;;;5032024;28;20304;-71
2022/01/06 01:22:22;;;;;;;20.45;19.15;;;4.70;82.90;;;;;;5032536;28;20197;-72
2022/01/06 01:24:49;;;;;;;20.40;18.95;;;4.70;82.90;;;;;;5032177;28;20732;-72
2022/01/06 01:27:20;;;;;;;21.33;19.92;;;4.60;82.90;;;;;;5032257;28;20208;-71
2022/01/06 01:29:57;;;;;;;21.17;19.60;;;4.70;83.20;;;;;;5032093;28;20698;-72
2022/01/06 01:32:30;;;;;;;20.73;19.35;;;4.70;82.80;;;;;;5032455;28;20267;-72
2022/01/06 01:35:01;;;;;;;21.50;20.00;;;4.70;83.00;;;;;;5032260;28;20288;-72
2022/01/06 01:37:28;;;;;;;21.95;20.55;;;4.70;82.90;;;;;;5032429;28;20309;-72
2022/01/06 01:39:55;;;;;;;21.05;19.65;;;4.70;82.50;;;;;;5031870;28;20259;-72
2022/01/06 01:42:23;;;;;;;20.55;18.98;;;4.80;82.20;;;;;;5032170;28;20208;-72
2022/01/06 01:44:51;;;;;;;20.08;18.67;;;4.80;82.30;;;;;;5032108;28;20221;-72
2022/01/06 01:47:28;;;;;;;20.73;19.27;;;4.80;82.80;;;;;;5031939;28;20196;-72
2022/01/06 01:49:59;;;;;;;21.05;19.65;;;4.80;83.20;;;;;;5031932;28;20213;-72
2022/01/06 01:52:27;;;;;;;21.27;19.85;;;4.90;83.00;;;;;;5032003;28;20681;-71
2022/01/06 01:54:54;;;;;;;20.55;19.10;;;4.80;83.30;;;;;;5032192;28;20197;-72
2022/01/06 01:57:21;;;;;;;20.75;19.33;;;4.70;83.70;;;;;;5031857;28;20197;-71
2022/01/06 01:59:48;;;;;;;20.90;19.40;;;4.70;84.20;;;;;;5032062;28;20698;-71
2022/01/06 02:02:14;;;;;;;20.85;19.20;;;4.50;84.30;;;;;;5033317;28;20201;-71
2022/01/06 02:04:41;;;;;;;21.15;19.48;;;4.50;84.90;;;;;;5035626;28;20223;-71
2022/01/06 02:07:08;;;;;;;21.33;19.80;;;4.60;85.80;;;;;;5035738;28;20216;-71
2022/01/06 02:09:37;;;;;;;22.23;20.55;;;4.60;86.10;;;;;;5035217;28;20214;-71
2022/01/06 02:12:07;;;;;;;20.85;19.25;;;4.70;85.70;;;;;;5035830;28;20419;-71
2022/01/06 02:14:35;;;;;;;20.40;19.20;;;4.70;85.20;;;;;;5035514;28;20216;-71
2022/01/06 02:17:01;;;;;;;21.38;19.65;;;4.70;85.10;;;;;;5035579;28;20292;-71
2022/01/06 02:19:28;;;;;;;20.73;19.13;;;4.60;85.30;;;;;;5035262;28;20301;-72
2022/01/06 02:21:57;;;;;;;20.15;18.75;;;4.60;85.70;;;;;;5035334;28;20284;-71
2022/01/06 02:24:23;;;;;;;20.75;19.25;;;4.50;85.80;;;;;;5035105;28;20221;-72
2022/01/06 02:26:50;;;;;;;20.50;19.08;;;4.50;88.40;;;;;;5035381;28;20641;-71
2022/01/06 02:29:19;;;;;;;20.80;19.40;;;4.50;86.90;;;;;;5035040;28;20283;-72
2022/01/06 02:31:47;;;;;;;19.90;18.55;;;4.50;86.50;;;;;;5035245;28;20198;-72
2022/01/06 02:34:14;;;;;;;21.63;20.13;;;4.50;86.20;;;;;;5034966;28;20193;-71
2022/01/06 02:36:41;;;;;;;20.75;19.25;;;4.50;86.30;;;;;;5034944;28;20204;-71
2022/01/06 02:39:10;;;;;;;20.45;19.20;;;4.50;86.70;;;;;;5035118;28;20219;-72
2022/01/06 02:41:36;;;;;;;21.08;19.67;;;4.50;86.70;;;;;;5034956;28;20204;-71
2022/01/06 02:44:03;;;;;;;21.08;19.77;;;4.40;86.50;;;;;;5034863;28;20311;-72
2022/01/06 02:46:30;;;;;;;20.75;19.35;;;4.60;85.80;;;;;;5034835;28;20707;-72
2022/01/06 02:48:57;;;;;;;20.67;19.23;;;4.60;85.80;;;;;;5034405;28;20213;-71
2022/01/06 02:51:24;;;;;;;20.60;19.40;;;4.60;85.40;;;;;;5034705;28;20756;-71
2022/01/06 02:53:53;;;;;;;21.02;19.58;;;4.60;85.60;;;;;;5034693;28;20205;-71
2022/01/06 02:56:21;;;;;;;20.42;19.23;;;4.50;85.80;;;;;;5034829;28;20201;-71
2022/01/06 02:58:48;;;;;;;20.30;18.70;;;4.40;86.20;;;;;;5034501;28;20197;-72
2022/01/06 03:01:15;;;;;;;21.40;20.05;;;4.50;86.10;;;;;;5034540;28;20194;-71
2022/01/06 03:03:42;;;;;;;20.70;19.48;;;4.50;85.60;;;;;;5034471;28;20225;-72
2022/01/06 03:06:09;;;;;;;20.55;19.35;;;4.60;85.20;;;;;;5034744;28;20215;-72
2022/01/06 03:08:37;;;;;;;20.75;19.30;;;4.60;84.90;;;;;;5034447;28;20284;-71
2022/01/06 03:11:04;;;;;;;20.77;19.40;;;4.60;84.50;;;;;;5034394;28;20247;-71
2022/01/06 03:13:32;;;;;;;21.00;19.60;;;4.60;84.40;;;;;;5033707;28;20702;-71
2022/01/06 03:16:01;;;;;;;21.27;19.73;;;4.60;86.80;;;;;;5034387;28;20292;-71
2022/01/06 03:18:28;;;;;;;21.58;20.00;;;4.50;85.10;;;;;;5034377;28;20205;-71
2022/01/06 03:20:55;;;;;;;21.65;20.23;;;4.40;85.30;;;;;;5034145;28;20217;-72
2022/01/06 03:23:22;;;;;;;20.85;19.52;;;4.40;85.40;;;;;;5034222;28;20696;-71
2022/01/06 03:25:49;;;;;;;22.58;20.80;;;4.50;85.40;;;;;;5034302;28;20193;-71
2022/01/06 03:28:15;;;;;;;21.25;20.05;;;4.50;85.20;;;;;;5034208;28;20666;-71
2022/01/06 03:30:44;;;;;;;19.88;18.50;;;4.50;85.10;;;;;;5033842;28;20243;-71
2022/01/06 03:33:11;;;;;;;21.55;19.75;;;4.50;90.40;;;;;;5034260;28;20207;-71
2022/01/06 03:35:37;;;;;;;21.45;19.92;;;4.60;88.70;;;;;;5034062;28;20200;-71
2022/01/06 03:38:04;;;;;;;20.45;19.15;;;4.50;88.40;;;;;;5034002;28;20201;-71
2022/01/06 03:40:31;;;;;;;21.00;19.63;;;4.60;87.40;;;;;;5033662;28;20225;-72
2022/01/06 03:42:58;;;;;;;22.02;20.08;;;4.60;86.20;;;;;;5033926;28;20197;-72
2022/01/06 03:45:25;;;;;;;20.60;19.30;;;4.70;86.10;;;;;;5033666;28;20307;-72
2022/01/06 03:47:55;;;;;;;20.17;18.98;;;4.70;85.30;;;;;;5033494;28;20211;-72
2022/01/06 03:50:22;;;;;;;269.65;41.28;;;4.60;88.80;;;;;;5033490;28;20232;-71
2022/01/06 03:52:49;;;;;;;20.38;18.83;;;4.60;89.20;;;;;;5033611;28;20198;-72
2022/01/06 03:55:17;;;;;;;22.40;20.23;;;4.60;88.90;;;;;;5033730;28;20193;-72
2022/01/06 03:57:44;;;;;;;20.88;19.35;;;4.70;87.50;;;;;;5033567;28;20228;-72
2022/01/06 04:00:14;;;;;;;20.95;19.52;;;4.70;87.10;;;;;;5033476;28;20730;-72
2022/01/06 04:02:41;;;;;;;20.38;19.00;;;4.70;86.80;;;;;;5033600;28;20200;-72
2022/01/06 04:05:11;;;;;;;21.13;19.77;;;4.60;86.70;;;;;;5033211;28;20323;-73
2022/01/06 04:07:39;;;;;;;21.00;19.60;;;4.60;86.20;;;;;;5033415;28;20201;-73
2022/01/06 04:10:08;;;;;;;20.98;19.20;;;4.50;86.40;;;;;;5033132;28;20227;-72
2022/01/06 04:12:37;;;;;;;19.75;18.55;;;4.40;86.90;;;;;;5033155;28;20208;-73
2022/01/06 04:15:08;;;;;;;20.38;19.08;;;4.50;86.70;;;;;;5033452;28;20323;-73
2022/01/06 04:17:35;;;;;;;21.02;19.52;;;4.50;86.60;;;;;;5033203;28;20201;-72
2022/01/06 04:20:02;;;;;;;19.67;18.42;;;4.50;86.40;;;;;;5033005;28;20216;-72
2022/01/06 04:22:30;;;;;;;20.10;18.70;;;4.50;86.30;;;;;;5033269;28;20197;-72
2022/01/06 04:24:57;;;;;;;19.88;18.77;;;4.40;86.50;;;;;;5032512;28;21087;-72
2022/01/06 04:27:24;;;;;;;20.10;18.65;;;4.40;87.90;;;;;;5032561;28;20201;-73
2022/01/06 04:29:51;;;;;;;19.08;17.88;;;4.40;88.50;;;;;;5032786;28;20221;-72
2022/01/06 04:32:17;;;;;;;19.98;18.60;;;4.40;88.10;;;;;;5032968;28;20745;-73
2022/01/06 04:34:44;;;;;;;20.17;18.95;;;4.40;87.70;;;;;;5032899;28;20655;-72
2022/01/06 04:37:11;;;;;;;21.80;20.50;;;4.30;87.50;;;;;;5032732;28;20291;-73
2022/01/06 04:39:40;;;;;;;20.23;19.10;;;4.40;88.00;;;;;;5032603;28;20247;-72
2022/01/06 04:42:07;;;;;;;20.73;19.27;;;4.40;87.10;;;;;;5032927;28;20201;-72
2022/01/06 04:44:33;;;;;;;19.75;18.75;;;4.50;87.20;;;;;;5032696;28;20221;-73
2022/01/06 04:47:01;;;;;;;19.83;18.63;;;4.50;86.90;;;;;;5032704;28;20197;-72
2022/01/06 04:49:28;;;;;;;20.75;19.27;;;4.40;87.20;;;;;;5032257;28;20216;-73
2022/01/06 04:51:55;;;;;;;21.40;19.88;;;4.50;86.90;;;;;;5032835;28;20197;-73
2022/01/06 04:54:22;;;;;;;22.85;21.05;;;4.60;86.60;;;;;;5032424;28;20193;-72
2022/01/06 04:56:50;;;;;;;21.15;19.63;;;4.50;86.50;;;;;;5032684;28;20197;-72
2022/01/06 04:59:17;;;;;;;20.70;19.27;;;4.50;86.80;;;;;;5032367;28;20220;-72
2022/01/06 05:01:45;;;;;;;20.00;18.85;;;4.40;86.90;;;;;;5032711;28;20263;-73
2022/01/06 05:04:12;;;;;;;21.30;19.45;;;4.50;86.80;;;;;;5032311;28;20211;-72
2022/01/06 05:06:39;;;;;;;20.55;19.45;;;4.50;86.70;;;;;;5032373;28;20197;-72
2022/01/06 05:09:06;;;;;;;21.15;19.85;;;4.50;86.50;;;;;;5032383;28;20698;-72
2022/01/06 05:11:33;;;;;;;20.83;19.48;;;4.40;86.60;;;;;;5032261;28;20201;-72
2022/01/06 05:14:01;;;;;;;21.40;19.70;;;4.40;87.00;;;;;;5032438;28;20193;-72
2022/01/06 05:16:28;;;;;;;20.77;19.25;;;4.40;87.10;;;;;;5032570;28;20281;-72
2022/01/06 05:18:55;;;;;;;20.63;19.33;;;4.40;86.80;;;;;;5032317;28;20213;-72
2022/01/06 05:21:21;;;;;;;20.05;18.70;;;4.50;86.70;;;;;;5032237;28;20671;-72
2022/01/06 05:23:49;;;;;;;22.85;21.00;;;4.50;86.50;;;;;;5032384;28;20658;-72
2022/01/06 05:26:16;;;;;;;21.05;19.75;;;4.40;86.60;;;;;;5032411;28;20228;-72
2022/01/06 05:28:43;;;;;;;21.40;19.75;;;4.40;86.70;;;;;;5032241;28;20666;-72
2022/01/06 05:31:11;;;;;;;20.95;19.63;;;4.50;86.70;;;;;;5032332;28;20655;-72
2022/01/06 05:33:38;;;;;;;20.25;19.10;;;4.40;86.60;;;;;;5032188;28;20207;-72
2022/01/06 05:36:06;;;;;;;21.60;19.98;;;4.50;86.60;;;;;;5032282;28;20189;-72
2022/01/06 05:38:33;;;;;;;22.33;20.20;;;4.50;86.30;;;;;;5035473;28;20288;-72
2022/01/06 05:40:59;;;;;;;19.80;18.60;;;4.40;86.50;;;;;;5036050;28;20201;-72
2022/01/06 05:43:27;;;;;;;22.00;20.70;;;4.40;86.80;;;;;;5036135;28;20197;-72
2022/01/06 05:45:56;;;;;;;20.42;19.23;;;4.40;87.00;;;;;;5035901;28;20237;-72
2022/01/06 05:48:24;;;;;;;20.02;18.67;;;4.40;86.80;;;;;;5035666;28;20235;-72
2022/01/06 05:50:51;;;;;;;20.33;18.98;;;4.40;87.20;;;;;;5035936;28;20313;-72
2022/01/06 05:53:19;;;;;;;20.90;19.63;;;4.40;86.90;;;;;;5035904;28;20251;-72
2022/01/06 05:55:46;;;;;;;20.35;18.65;;;4.40;86.80;;;;;;5035967;28;20280;-72
2022/01/06 05:58:13;;;;;;;20.80;19.35;;;4.40;88.10;;;;;;5035910;28;20207;-72
2022/01/06 06:00:40;;;;;;;20.15;18.63;;;4.60;88.80;;;;;;5035497;28;20217;-72
2022/01/06 06:03:07;;;;;;;50.20;21.40;;;4.50;91.40;;;;;;5035766;28;20248;-72
2022/01/06 06:05:35;;;;;;;21.10;19.65;;;4.40;93.90;;;;;;5035541;28;20320;-72
2022/01/06 06:08:02;;;;;;;28.48;20.75;;;4.40;92.30;;;;;;5035663;28;20284;-72
2022/01/06 06:10:29;;;;;;;19.45;17.80;;;4.60;90.10;;;;;;5035471;28;20221;-72
2022/01/06 06:12:56;;;;;;;19.90;18.63;;;4.50;94.90;;;;;;5035601;28;20279;-72
2022/01/06 06:15:23;;;;;;;20.33;18.95;;;4.60;92.20;;;;;;5035512;28;20669;-72
2022/01/06 06:17:50;;;;;;;20.17;18.85;;;4.50;90.30;;;;;;5035623;28;20204;-72
2022/01/06 06:20:17;;;;;;;19.77;18.48;;;4.60;89.60;;;;;;5035347;28;20224;-72
2022/01/06 06:22:45;;;;;;;18.63;17.63;;;4.60;89.60;;;;;;5035834;28;20224;-72
2022/01/06 06:25:12;;;;;;;20.17;18.52;;;4.50;88.70;;;;;;5035261;28;20225;-72
2022/01/06 06:27:39;;;;;;;19.40;18.15;;;4.70;88.10;;;;;;5035374;28;20562;-72
2022/01/06 06:30:08;;;;;;;20.05;18.63;;;4.70;88.20;;;;;;5035003;28;20223;-72
2022/01/06 06:32:35;;;;;;;20.08;18.85;;;4.60;87.70;;;;;;5035625;28;20679;-72
2022/01/06 06:35:02;;;;;;;20.95;19.55;;;4.70;87.40;;;;;;5035252;28;20247;-72
2022/01/06 06:37:29;;;;;;;20.67;19.10;;;4.70;86.50;;;;;;5035588;28;20561;-72
2022/01/06 06:39:58;;;;;;;20.65;19.15;;;4.70;87.10;;;;;;5034849;28;20224;-72
2022/01/06 06:42:25;;;;;;;19.63;18.25;;;4.60;88.60;;;;;;5035107;28;20202;-72
2022/01/06 06:44:52;;;;;;;20.38;19.00;;;4.60;88.20;;;;;;5034965;28;20221;-72
2022/01/06 06:47:19;;;;;;;20.13;18.92;;;4.60;88.30;;;;;;5034686;28;20201;-73
2022/01/06 06:49:46;;;;;;;20.90;19.67;;;4.60;88.00;;;;;;5033715;28;20220;-72
2022/01/06 06:52:13;;;;;;;20.75;19.02;;;4.60;87.50;;;;;;5034832;28;20240;-73
2022/01/06 06:54:40;;;;;;;20.70;19.40;;;4.70;86.80;;;;;;5034621;28;20200;-72
2022/01/06 06:57:09;;;;;;;20.85;19.65;;;4.60;86.70;;;;;;5034796;28;20201;-72
2022/01/06 06:59:36;;;;;;;21.15;19.70;;;4.60;86.30;;;;;;5034491;28;20225;-72
2022/01/06 07:02:03;;;;;;;21.85;20.25;;;4.50;88.70;;;;;;5034724;28;20275;-73
2022/01/06 07:04:30;;;;;;;21.48;20.08;;;4.50;89.50;;;;;;5034586;28;20615;-73
2022/01/06 07:06:57;;;;;;;21.23;19.77;;;4.40;87.40;;;;;;5034566;28;20199;-72
2022/01/06 07:09:24;;;;;;;21.45;20.05;;;4.40;87.60;;;;;;5034113;28;20224;-72
2022/01/06 07:11:51;;;;;;;21.85;20.55;;;4.40;86.80;;;;;;5034501;28;20291;-72
2022/01/06 07:14:19;;;;;;;22.92;20.25;;;4.40;86.90;;;;;;5034335;28;20288;-72
2022/01/06 07:16:46;;;;;;;21.30;19.77;;;4.40;88.30;;;;;;5034482;28;20201;-72
2022/01/06 07:19:13;;;;;;;21.40;20.08;;;4.40;91.20;;;;;;5034042;28;20257;-72
2022/01/06 07:21:40;;;;;;;22.17;20.30;;;4.50;89.40;;;;;;5034352;28;20228;-72
2022/01/06 07:24:07;;;;;;;21.90;20.40;;;4.50;88.10;;;;;;5034165;28;20203;-72
2022/01/06 07:26:34;;;;;;;22.10;20.60;;;4.60;87.10;;;;;;5034072;28;20252;-72
2022/01/06 07:29:01;;;;;;;22.20;20.45;;;4.60;87.20;;;;;;5034095;28;20224;-72
2022/01/06 07:31:29;;;;;;;22.17;20.65;;;4.70;87.00;;;;;;5034170;28;20611;-72
2022/01/06 07:33:56;;;;;;;20.35;19.10;;;4.70;87.00;;;;;;5034112;28;20197;-72
2022/01/06 07:36:23;;;;;;;22.08;20.75;;;4.70;87.50;;;;;;5033959;28;20204;-72
2022/01/06 07:38:50;;;;;;;20.38;19.08;;;4.60;87.50;;;;;;5033816;28;20203;-73
2022/01/06 07:41:17;;;;;;;22.73;21.33;;;4.70;87.00;;;;;;5033740;28;20635;-73
2022/01/06 07:43:44;;;;;;;22.88;21.58;;;4.60;86.80;;;;;;5033807;28;20229;-72
2022/01/06 07:46:12;;;;;;;22.63;21.23;;;4.70;86.90;;;;;;5034074;28;20225;-72
2022/01/06 07:48:55;;;;;;;23.10;21.70;;;4.80;86.10;;;;;;5033509;28;20291;-72
2022/01/06 07:51:23;;;;;;;22.35;20.67;;;4.90;85.30;;;;;;5033728;28;20228;-72
2022/01/06 07:53:49;;;;;;;21.88;20.35;;;4.90;84.90;;;;;;5033378;28;20201;-73
2022/01/06 07:56:16;;;;;;;23.25;21.80;;;4.90;84.90;;;;;;5033717;28;20193;-73
2022/01/06 07:58:43;;;;;;;21.70;20.20;;;4.90;85.00;;;;;;5033466;28;20193;-72
2022/01/06 08:01:10;;;;;;;22.27;21.02;;;4.80;85.50;;;;;;5032968;28;20714;-72
2022/01/06 08:03:38;;;;;;;20.55;19.33;;;4.70;85.10;;;;;;5033237;28;20200;-72
2022/01/06 08:06:06;;;;;;;21.40;20.00;;;4.80;85.30;;;;;;5033253;28;20243;-73
2022/01/06 08:08:33;;;;;;;21.20;19.70;;;4.70;85.20;;;;;;5032939;28;20653;-72
2022/01/06 08:11:00;;;;;;;21.38;19.90;;;4.60;85.70;;;;;;5033091;28;20292;-72
2022/01/06 08:13:27;;;;;;;647.47;83.50;;;4.50;88.30;;;;;;5033209;28;20558;-73
2022/01/06 08:15:54;;;;;;;22.25;20.77;;;4.50;87.70;;;;;;5032978;28;20197;-73
2022/01/06 08:18:21;;;;;;;22.30;20.65;;;4.60;87.60;;;;;;5033106;28;20197;-72
2022/01/06 08:20:48;;;;;;;21.20;19.65;;;4.60;87.00;;;;;;5032767;28;20308;-73
2022/01/06 08:23:16;;;;;;;21.63;20.23;;;4.60;85.90;;;;;;5032956;28;20197;-73
2022/01/06 08:25:43;;;;;;;22.15;20.77;;;4.50;85.90;;;;;;5032961;28;20424;-73
2022/01/06 08:28:10;;;;;;;20.65;19.13;;;4.60;85.90;;;;;;5032984;28;20198;-72
2022/01/06 08:30:37;;;;;;;22.30;20.85;;;4.60;85.90;;;;;;5032744;28;20216;-73
2022/01/06 08:33:04;;;;;;;22.15;20.30;;;4.50;88.70;;;;;;5032903;28;20204;-73
2022/01/06 08:35:31;;;;;;;21.15;19.75;;;4.60;87.20;;;;;;5032917;28;20284;-73
2022/01/06 08:37:58;;;;;;;22.30;20.65;;;4.60;86.50;;;;;;5032848;28;20637;-73
2022/01/06 08:40:27;;;;;;;22.55;20.98;;;4.50;85.90;;;;;;5032643;28;20223;-73
2022/01/06 08:42:54;;;;;;;22.92;21.30;;;4.60;85.60;;;;;;5032897;28;20211;-73
2022/01/06 08:45:21;;;;;;;21.90;20.30;;;4.70;85.40;;;;;;5032530;28;20654;-73
2022/01/06 08:47:48;;;;;;;22.77;21.35;;;4.70;90.30;;;;;;5032432;28;20197;-73
2022/01/06 08:50:16;;;;;;;21.35;19.83;;;4.70;88.30;;;;;;5032475;28;20217;-73
2022/01/06 08:52:44;;;;;;;21.85;20.45;;;4.70;88.40;;;;;;5032421;28;20197;-72
2022/01/06 08:55:11;;;;;;;22.90;21.55;;;4.70;86.50;;;;;;5032725;28;20211;-73
2022/01/06 08:57:40;;;;;;;23.25;21.83;;;4.70;85.90;;;;;;5032605;28;20201;-73
2022/01/06 09:00:09;;;;;;;23.10;21.38;;;4.70;85.60;;;;;;5032236;28;20251;-72
2022/01/06 09:02:36;;;;;;;23.92;22.42;;;4.80;85.40;;;;;;5032511;28;20224;-72
2022/01/06 09:05:06;;;;;;;22.45;21.08;;;4.90;85.00;;;;;;5032448;28;20240;-72
2022/01/06 09:07:33;;;;;;;23.55;21.80;;;4.80;86.20;;;;;;5032387;28;20725;-73
2022/01/06 09:10:00;;;;;;;23.00;21.17;;;4.90;85.20;;;;;;5032112;28;20221;-72
2022/01/06 09:12:27;;;;;;;24.13;22.52;;;5.00;83.50;;;;;;5035854;28;20251;-73
2022/01/06 09:14:55;;;;;;;22.13;20.35;;;4.80;83.40;;;;;;5039111;28;20531;-73
2022/01/06 09:17:22;;;;;;;23.90;22.30;;;4.80;83.60;;;;;;5038952;28;20280;-73
2022/01/06 09:19:49;;;;;;;23.77;22.15;;;4.70;84.40;;;;;;5038732;28;20231;-72
2022/01/06 09:22:16;;;;;;;22.50;20.83;;;4.70;83.90;;;;;;5039126;28;20288;-73
2022/01/06 09:24:43;;;;;;;23.85;22.20;;;4.80;84.20;;;;;;5038822;28;20201;-72
2022/01/06 09:27:10;;;;;;;23.30;21.70;;;4.90;83.40;;;;;;5038731;28;20221;-72
2022/01/06 09:29:36;;;;;;;23.40;21.73;;;5.00;82.50;;;;;;5038508;28;20227;-72
2022/01/06 09:32:05;;;;;;;24.70;23.08;;;4.90;82.50;;;;;;5038982;28;20223;-71
2022/01/06 09:34:32;;;;;;;23.75;21.77;;;4.90;82.30;;;;;;5038926;28;20228;-72
2022/01/06 09:36:59;;;;;;;22.15;20.55;;;5.00;82.60;;;;;;5038748;28;20193;-72
2022/01/06 09:39:26;;;;;;;23.38;21.33;;;5.20;82.60;;;;;;5038468;28;20212;-72
2022/01/06 09:41:53;;;;;;;23.48;21.90;;;5.10;81.00;;;;;;5038992;28;20228;-72
2022/01/06 09:44:21;;;;;;;22.20;20.80;;;5.10;81.60;;;;;;5038950;28;20233;-72
2022/01/06 09:46:47;;;;;;;24.42;22.50;;;5.20;81.10;;;;;;5038747;28;20217;-72
2022/01/06 09:49:16;;;;;;;24.20;22.02;;;5.40;80.60;;;;;;5038149;28;20304;-72
2022/01/06 09:51:43;;;;;;;23.83;21.85;;;5.40;79.50;;;;;;5038757;28;20615;-73
2022/01/06 09:54:09;;;;;;;22.67;21.02;;;5.30;79.60;;;;;;5038676;28;20193;-73
2022/01/06 09:56:36;;;;;;;22.67;21.15;;;5.40;81.40;;;;;;5038658;28;20207;-72
2022/01/06 09:59:03;;;;;;;23.55;22.15;;;5.50;80.10;;;;;;5038503;28;20217;-72
2022/01/06 10:01:30;;;;;;;24.50;22.88;;;5.50;79.20;;;;;;5038483;28;20197;-72
2022/01/06 10:03:57;;;;;;;22.90;21.50;;;5.30;79.60;;;;;;5038444;28;20223;-72
2022/01/06 10:06:28;;;;;;;24.38;22.55;;;5.40;79.90;;;;;;5038463;28;20303;-72
2022/01/06 10:08:59;;;;;;;22.08;20.80;;;5.60;79.60;;;;;;5038342;28;20217;-72
2022/01/06 10:11:28;;;;;;;23.60;21.60;;;5.70;78.40;;;;;;5038362;28;20201;-72
2022/01/06 10:13:58;;;;;;;23.30;21.70;;;5.80;78.60;;;;;;5038481;28;20224;-72
2022/01/06 10:16:28;;;;;;;26.02;24.27;;;5.80;80.00;;;;;;5038490;28;20225;-72
2022/01/06 10:19:02;;;;;;;21.42;19.98;;;5.90;78.20;;;;;;5038165;28;20217;-72
2022/01/06 10:21:36;;;;;;;24.50;22.73;;;5.90;78.30;;;;;;5038442;28;20219;-72
2022/01/06 10:24:07;;;;;;;25.02;23.35;;;6.00;78.50;;;;;;5036427;28;20280;-72
2022/01/06 10:26:34;;;;;;;23.25;21.85;;;6.00;77.20;;;;;;5035331;28;20274;-72
2022/01/06 10:29:02;;;;;;;24.67;22.88;;;6.00;83.70;;;;;;5035057;28;20217;-72
2022/01/06 10:31:31;;;;;;;25.35;23.60;;;6.00;79.80;;;;;;5035026;28;20681;-72
2022/01/06 10:33:59;;;;;;;25.60;23.77;;;6.10;77.50;;;;;;5035138;28;20205;-72
2022/01/06 10:36:31;;;;;;;24.63;22.88;;;5.80;77.70;;;;;;5035152;28;20193;-72
2022/01/06 10:39:01;;;;;;;19.92;18.80;;;5.70;77.50;;;;;;5035032;28;20213;-72
2022/01/06 10:41:29;;;;;;;25.60;23.08;;;5.40;77.70;;;;;;5035107;28;20276;-72
2022/01/06 10:43:58;;;;;;;25.70;23.33;;;5.20;77.70;;;;;;5034896;28;20197;-72
2022/01/06 10:46:30;;;;;;;24.95;23.15;;;5.20;77.90;;;;;;5034885;28;20308;-72
2022/01/06 10:48:58;;;;;;;23.60;21.90;;;5.30;77.80;;;;;;5034459;28;20213;-72
2022/01/06 10:51:38;;;;;;;23.75;21.98;;;5.30;77.70;;;;;;5034826;28;20208;-72
2022/01/06 10:54:15;;;;;;;24.35;22.60;;;4.90;78.30;;;;;;5034683;28;20285;-72
2022/01/06 10:56:42;;;;;;;25.63;23.30;;;5.00;78.90;;;;;;5034599;28;20279;-72
2022/01/06 10:59:09;;;;;;;25.55;23.70;;;5.20;78.60;;;;;;5034373;28;20221;-72
2022/01/06 11:01:37;;;;;;;25.35;23.73;;;5.30;78.30;;;;;;5034733;28;20659;-72
2022/01/06 11:04:05;;;;;;;23.77;21.90;;;5.40;77.10;;;;;;5034445;28;20223;-72
2022/01/06 11:06:32;;;;;;;24.05;22.30;;;5.40;78.10;;;;;;5034357;28;20275;-72
2022/01/06 11:08:59;;;;;;;23.75;22.17;;;5.50;78.80;;;;;;5034345;28;20295;-72
2022/01/06 11:14:09;;;;;;;23.60;21.80;;;5.90;76.30;;;;;;4990618;28;20251;-72
2022/01/06 11:16:36;;;;;;;24.55;22.52;;;6.10;76.00;;;;;;5034266;28;20189;-72
2022/01/06 11:19:04;;;;;;;25.58;23.63;;;6.20;75.40;;;;;;5034270;28;20304;-73
2022/01/06 11:21:36;;;;;;;25.55;23.52;;;5.80;76.00;;;;;;5034135;28;20229;-74
2022/01/06 11:24:09;;;;;;;25.30;23.77;;;5.80;76.80;;;;;;5034188;28;20280;-74
2022/01/06 11:26:39;;;;;;;23.40;21.90;;;5.80;76.40;;;;;;5034103;28;20217;-73
2022/01/06 11:29:05;;;;;;;24.92;23.25;;;5.40;76.90;;;;;;5034010;28;20227;-73
2022/01/06 11:31:38;;;;;;;24.20;22.50;;;5.40;77.50;;;;;;5033897;28;20385;-73
2022/01/06 11:34:16;;;;;;;22.38;20.75;;;5.40;77.40;;;;;;5033926;28;20197;-73
2022/01/06 11:36:44;;;;;;;24.55;22.05;;;5.40;77.80;;;;;;5033640;28;20742;-73
2022/01/06 11:39:23;;;;;;;24.35;22.75;;;5.40;77.70;;;;;;5033562;28;20228;-73
2022/01/06 11:41:52;;;;;;;23.42;21.52;;;5.50;77.70;;;;;;5034059;28;20266;-73
2022/01/06 11:44:22;;;;;;;24.38;22.38;;;5.70;77.00;;;;;;5033694;28;20205;-74
2022/01/06 11:46:51;;;;;;;24.40;22.60;;;5.50;76.40;;;;;;5033701;28;20218;-73
2022/01/06 11:49:34;;;;;;;25.23;23.15;;;5.40;77.10;;;;;;5033185;28;20249;-73
2022/01/06 11:52:06;;;;;;;22.55;20.95;;;5.40;77.20;;;;;;5033645;28;20283;-74
2022/01/06 11:54:33;;;;;;;24.58;22.88;;;5.30;77.00;;;;;;5033447;28;20286;-73
2022/01/06 11:57:01;;;;;;;24.85;22.67;;;5.20;77.50;;;;;;5033340;28;20202;-73
2022/01/06 11:59:32;;;;;;;20.88;19.48;;;5.30;77.50;;;;;;5033286;28;20563;-73
2022/01/06 12:02:00;;;;;;;24.80;22.67;;;5.30;77.00;;;;;;5033806;28;20208;-73
2022/01/06 12:04:27;;;;;;;24.55;22.45;;;5.20;77.50;;;;;;5033493;28;20209;-73
2022/01/06 12:07:04;;;;;;;23.63;21.92;;;5.40;77.00;;;;;;5033244;28;20267;-73
2022/01/06 12:09:31;;;;;;;24.05;22.23;;;5.70;75.90;;;;;;5033007;28;20227;-73
2022/01/06 12:12:04;;;;;;;22.70;20.95;;;5.70;74.10;;;;;;5033727;28;20201;-74
2022/01/06 12:14:31;;;;;;;23.13;21.60;;;5.80;74.20;;;;;;5033154;28;20204;-73
2022/01/06 12:17:05;;;;;;;26.08;24.17;;;5.90;73.40;;;;;;5033282;28;20284;-73
2022/01/06 12:19:33;;;;;;;25.75;24.35;;;5.60;74.60;;;;;;5032811;28;20773;-73
2022/01/06 12:22:00;;;;;;;23.52;22.02;;;5.50;74.10;;;;;;5033002;28;20654;-74
2022/01/06 12:24:27;;;;;;;23.42;21.33;;;5.50;74.60;;;;;;5033073;28;20680;-73
2022/01/06 12:26:54;;;;;;;25.10;23.27;;;5.60;74.40;;;;;;5032904;28;20225;-73
2022/01/06 12:29:26;;;;;;;25.20;23.10;;;5.50;74.70;;;;;;5032591;28;20673;-73
2022/01/06 12:32:04;;;;;;;23.17;21.50;;;5.60;74.70;;;;;;5033268;28;20220;-73
2022/01/06 12:34:34;;;;;;;26.35;24.80;;;5.70;74.40;;;;;;5032982;28;20204;-73
2022/01/06 12:37:01;;;;;;;24.52;22.80;;;5.60;74.10;;;;;;5032897;28;20194;-73
2022/01/06 12:39:28;;;;;;;23.65;22.05;;;5.30;75.60;;;;;;5032770;28;20252;-73
2022/01/06 12:41:55;;;;;;;24.30;22.40;;;5.20;75.80;;;;;;5032869;28;20288;-73
2022/01/06 12:44:27;;;;;;;24.75;22.73;;;5.30;75.80;;;;;;5032733;28;20288;-73